sensor_id;sensor_type;location;lat;lon;timestamp;P1;durP1;ratioP1;P2;durP2;ratioP2
5805;SDS011;2929;50.810;8.342;2024-01-30T00:02:13;18.07;;;10.63;;
5805;SDS011;2929;50.810;8.342;2024-01-30T00:04:42;23.83;;;11.37;;
5805;SDS011;2929;50.810;8.342;2024-01-30T00:07:09;25.63;;;12.00;;
5805;SDS011;2929;50.810;8.342;2024-01-30T00:09:36;24.03;;;12.00;;
5805;SDS011;2929;50.810;8.342;2024-01-30T00:12:05;18.53;;;11.13;;
5805;SDS011;2929;50.810;8.342;2024-01-30T00:14:32;15.80;;;11.03;;
5805;SDS011;2929;50.810;8.342;2024-01-30T00:16:59;24.73;;;11.50;;
5805;SDS011;2929;50.810;8.342;2024-01-30T00:19:26;19.80;;;11.10;;
5805;SDS011;2929;50.810;8.342;2024-01-30T00:21:55;26.60;;;12.83;;
5805;SDS011;2929;50.810;8.342;2024-01-30T00:24:21;16.23;;;9.10;;
5805;SDS011;2929;50.810;8.342;2024-01-30T00:26:48;20.30;;;9.83;;
5805;SDS011;2929;50.810;8.342;2024-01-30T00:29:15;16.83;;;10.20;;
5805;SDS011;2929;50.810;8.342;2024-01-30T00:31:44;21.67;;;10.20;;
5805;SDS011;2929;50.810;8.342;2024-01-30T00:34:11;18.30;;;8.93;;
5805;SDS011;2929;50.810;8.342;2024-01-30T00:36:38;16.83;;;8.70;;
5805;SDS011;2929;50.810;8.342;2024-01-30T00:39:06;15.53;;;9.60;;
5805;SDS011;2929;50.810;8.342;2024-01-30T00:41:35;23.40;;;8.70;;
5805;SDS011;2929;50.810;8.342;2024-01-30T00:44:02;17.50;;;10.13;;
5805;SDS011;2929;50.810;8.342;2024-01-30T00:46:29;22.87;;;8.57;;
5805;SDS011;2929;50.810;8.342;2024-01-30T00:48:56;18.30;;;9.50;;
5805;SDS011;2929;50.810;8.342;2024-01-30T00:51:23;18.97;;;9.20;;
5805;SDS011;2929;50.810;8.342;2024-01-30T00:53:50;15.43;;;9.43;;
5805;SDS011;2929;50.810;8.342;2024-01-30T00:56:18;24.83;;;9.57;;
5805;SDS011;2929;50.810;8.342;2024-01-30T00:58:45;18.10;;;9.97;;
5805;SDS011;2929;50.810;8.342;2024-01-30T01:01:12;17.33;;;9.47;;
5805;SDS011;2929;50.810;8.342;2024-01-30T01:03:39;14.17;;;8.50;;
5805;SDS011;2929;50.810;8.342;2024-01-30T01:06:09;15.67;;;9.10;;
5805;SDS011;2929;50.810;8.342;2024-01-30T01:08:36;14.83;;;9.20;;
5805;SDS011;2929;50.810;8.342;2024-01-30T01:11:03;19.97;;;9.43;;
5805;SDS011;2929;50.810;8.342;2024-01-30T01:13:31;18.83;;;9.17;;
5805;SDS011;2929;50.810;8.342;2024-01-30T01:15:58;17.50;;;8.43;;
5805;SDS011;2929;50.810;8.342;2024-01-30T01:18:28;15.17;;;8.33;;
5805;SDS011;2929;50.810;8.342;2024-01-30T01:20:55;15.20;;;9.37;;
5805;SDS011;2929;50.810;8.342;2024-01-30T01:23:22;21.30;;;10.17;;
5805;SDS011;2929;50.810;8.342;2024-01-30T01:25:48;19.87;;;9.30;;
5805;SDS011;2929;50.810;8.342;2024-01-30T01:28:15;16.50;;;8.73;;
5805;SDS011;2929;50.810;8.342;2024-01-30T01:30:44;17.00;;;8.57;;
5805;SDS011;2929;50.810;8.342;2024-01-30T01:33:11;17.33;;;8.60;;
5805;SDS011;2929;50.810;8.342;2024-01-30T01:35:39;14.30;;;8.70;;
5805;SDS011;2929;50.810;8.342;2024-01-30T01:38:06;17.90;;;8.80;;
5805;SDS011;2929;50.810;8.342;2024-01-30T01:40:33;20.90;;;8.87;;
5805;SDS011;2929;50.810;8.342;2024-01-30T01:43:02;20.33;;;9.87;;
5805;SDS011;2929;50.810;8.342;2024-01-30T01:45:30;14.93;;;8.70;;
5805;SDS011;2929;50.810;8.342;2024-01-30T01:47:58;20.30;;;9.57;;
5805;SDS011;2929;50.810;8.342;2024-01-30T01:50:25;17.57;;;9.57;;
5805;SDS011;2929;50.810;8.342;2024-01-30T01:52:53;19.00;;;9.70;;
5805;SDS011;2929;50.810;8.342;2024-01-30T01:55:21;16.17;;;9.87;;
5805;SDS011;2929;50.810;8.342;2024-01-30T01:57:50;18.33;;;9.53;;
5805;SDS011;2929;50.810;8.342;2024-01-30T02:00:18;19.20;;;9.83;;
5805;SDS011;2929;50.810;8.342;2024-01-30T02:02:46;20.93;;;10.53;;
5805;SDS011;2929;50.810;8.342;2024-01-30T02:05:15;23.70;;;10.00;;
5805;SDS011;2929;50.810;8.342;2024-01-30T02:07:43;17.77;;;9.70;;
5805;SDS011;2929;50.810;8.342;2024-01-30T02:10:10;20.37;;;9.37;;
5805;SDS011;2929;50.810;8.342;2024-01-30T02:12:37;14.60;;;8.53;;
5805;SDS011;2929;50.810;8.342;2024-01-30T02:15:04;14.10;;;8.63;;
5805;SDS011;2929;50.810;8.342;2024-01-30T02:17:33;18.97;;;9.50;;
5805;SDS011;2929;50.810;8.342;2024-01-30T02:20:00;17.17;;;9.47;;
5805;SDS011;2929;50.810;8.342;2024-01-30T02:22:29;22.87;;;9.60;;
5805;SDS011;2929;50.810;8.342;2024-01-30T02:24:58;21.77;;;10.30;;
5805;SDS011;2929;50.810;8.342;2024-01-30T02:27:25;19.17;;;10.13;;
5805;SDS011;2929;50.810;8.342;2024-01-30T02:29:52;17.00;;;9.37;;
5805;SDS011;2929;50.810;8.342;2024-01-30T02:32:19;16.77;;;9.30;;
5805;SDS011;2929;50.810;8.342;2024-01-30T02:34:45;22.87;;;10.97;;
5805;SDS011;2929;50.810;8.342;2024-01-30T02:37:12;26.60;;;12.10;;
5805;SDS011;2929;50.810;8.342;2024-01-30T02:39:41;18.93;;;10.93;;
5805;SDS011;2929;50.810;8.342;2024-01-30T02:42:08;19.20;;;10.20;;
5805;SDS011;2929;50.810;8.342;2024-01-30T02:44:35;25.17;;;11.40;;
5805;SDS011;2929;50.810;8.342;2024-01-30T02:47:01;25.73;;;10.40;;
5805;SDS011;2929;50.810;8.342;2024-01-30T02:49:28;23.83;;;12.27;;
5805;SDS011;2929;50.810;8.342;2024-01-30T02:51:55;19.27;;;9.70;;
5805;SDS011;2929;50.810;8.342;2024-01-30T02:54:22;19.43;;;10.50;;
5805;SDS011;2929;50.810;8.342;2024-01-30T02:56:51;24.67;;;10.90;;
5805;SDS011;2929;50.810;8.342;2024-01-30T02:59:18;18.00;;;10.20;;
5805;SDS011;2929;50.810;8.342;2024-01-30T03:01:45;18.80;;;10.03;;
5805;SDS011;2929;50.810;8.342;2024-01-30T03:04:13;18.37;;;8.83;;
5805;SDS011;2929;50.810;8.342;2024-01-30T03:06:44;18.83;;;9.90;;
5805;SDS011;2929;50.810;8.342;2024-01-30T03:09:12;22.87;;;11.33;;
5805;SDS011;2929;50.810;8.342;2024-01-30T03:11:38;18.27;;;10.60;;
5805;SDS011;2929;50.810;8.342;2024-01-30T03:14:06;20.83;;;10.33;;
5805;SDS011;2929;50.810;8.342;2024-01-30T03:16:36;22.30;;;10.20;;
5805;SDS011;2929;50.810;8.342;2024-01-30T03:19:03;21.27;;;11.07;;
5805;SDS011;2929;50.810;8.342;2024-01-30T03:21:30;17.77;;;8.60;;
5805;SDS011;2929;50.810;8.342;2024-01-30T03:23:57;17.30;;;9.10;;
5805;SDS011;2929;50.810;8.342;2024-01-30T03:26:24;20.40;;;10.67;;
5805;SDS011;2929;50.810;8.342;2024-01-30T03:28:51;29.20;;;10.67;;
5805;SDS011;2929;50.810;8.342;2024-01-30T03:31:19;24.73;;;11.50;;
5805;SDS011;2929;50.810;8.342;2024-01-30T03:33:46;20.17;;;10.00;;
5805;SDS011;2929;50.810;8.342;2024-01-30T03:36:15;20.47;;;10.17;;
5805;SDS011;2929;50.810;8.342;2024-01-30T03:38:42;23.60;;;11.90;;
5805;SDS011;2929;50.810;8.342;2024-01-30T03:41:09;26.10;;;11.80;;
5805;SDS011;2929;50.810;8.342;2024-01-30T03:43:36;26.97;;;11.20;;
5805;SDS011;2929;50.810;8.342;2024-01-30T03:46:03;21.47;;;10.90;;
5805;SDS011;2929;50.810;8.342;2024-01-30T03:48:31;21.47;;;10.63;;
5805;SDS011;2929;50.810;8.342;2024-01-30T03:50:58;26.73;;;11.00;;
5805;SDS011;2929;50.810;8.342;2024-01-30T03:53:25;25.93;;;10.93;;
5805;SDS011;2929;50.810;8.342;2024-01-30T03:55:52;23.30;;;12.13;;
5805;SDS011;2929;50.810;8.342;2024-01-30T03:58:19;23.03;;;11.80;;
5805;SDS011;2929;50.810;8.342;2024-01-30T04:00:46;21.40;;;11.50;;
5805;SDS011;2929;50.810;8.342;2024-01-30T04:03:14;25.50;;;11.70;;
5805;SDS011;2929;50.810;8.342;2024-01-30T04:05:42;26.50;;;11.53;;
5805;SDS011;2929;50.810;8.342;2024-01-30T04:08:09;18.63;;;10.90;;
5805;SDS011;2929;50.810;8.342;2024-01-30T04:10:36;23.17;;;10.57;;
5805;SDS011;2929;50.810;8.342;2024-01-30T04:13:03;23.33;;;11.37;;
5805;SDS011;2929;50.810;8.342;2024-01-30T04:15:30;24.33;;;11.23;;
5805;SDS011;2929;50.810;8.342;2024-01-30T04:17:58;24.53;;;10.40;;
5805;SDS011;2929;50.810;8.342;2024-01-30T04:20:25;25.73;;;9.80;;
5805;SDS011;2929;50.810;8.342;2024-01-30T04:22:53;17.73;;;10.50;;
5805;SDS011;2929;50.810;8.342;2024-01-30T04:25:20;24.87;;;10.70;;
5805;SDS011;2929;50.810;8.342;2024-01-30T04:27:48;18.90;;;9.83;;
5805;SDS011;2929;50.810;8.342;2024-01-30T04:30:15;19.60;;;10.80;;
5805;SDS011;2929;50.810;8.342;2024-01-30T04:32:42;29.33;;;12.30;;
5805;SDS011;2929;50.810;8.342;2024-01-30T04:35:09;23.37;;;11.23;;
5805;SDS011;2929;50.810;8.342;2024-01-30T04:37:36;21.93;;;11.60;;
5805;SDS011;2929;50.810;8.342;2024-01-30T04:40:05;22.13;;;10.30;;
5805;SDS011;2929;50.810;8.342;2024-01-30T04:42:33;24.23;;;11.07;;
5805;SDS011;2929;50.810;8.342;2024-01-30T04:45:00;20.87;;;10.43;;
5805;SDS011;2929;50.810;8.342;2024-01-30T04:47:27;46.47;;;12.20;;
5805;SDS011;2929;50.810;8.342;2024-01-30T04:49:54;27.20;;;12.80;;
5805;SDS011;2929;50.810;8.342;2024-01-30T04:52:21;20.57;;;10.97;;
5805;SDS011;2929;50.810;8.342;2024-01-30T04:54:48;27.20;;;11.23;;
5805;SDS011;2929;50.810;8.342;2024-01-30T04:57:16;26.37;;;11.70;;
5805;SDS011;2929;50.810;8.342;2024-01-30T04:59:43;24.40;;;11.90;;
5805;SDS011;2929;50.810;8.342;2024-01-30T05:02:10;21.23;;;10.57;;
5805;SDS011;2929;50.810;8.342;2024-01-30T05:04:37;28.50;;;12.17;;
5805;SDS011;2929;50.810;8.342;2024-01-30T05:07:04;28.17;;;11.50;;
5805;SDS011;2929;50.810;8.342;2024-01-30T05:09:31;32.03;;;13.23;;
5805;SDS011;2929;50.810;8.342;2024-01-30T05:11:58;24.03;;;12.10;;
5805;SDS011;2929;50.810;8.342;2024-01-30T05:14:26;34.73;;;12.30;;
5805;SDS011;2929;50.810;8.342;2024-01-30T05:16:53;22.07;;;11.83;;
5805;SDS011;2929;50.810;8.342;2024-01-30T05:19:20;29.63;;;13.30;;
5805;SDS011;2929;50.810;8.342;2024-01-30T05:21:48;31.80;;;13.23;;
5805;SDS011;2929;50.810;8.342;2024-01-30T05:24:15;37.67;;;13.53;;
5805;SDS011;2929;50.810;8.342;2024-01-30T05:26:42;36.40;;;13.40;;
5805;SDS011;2929;50.810;8.342;2024-01-30T05:29:09;27.20;;;13.40;;
5805;SDS011;2929;50.810;8.342;2024-01-30T05:31:37;29.13;;;11.20;;
5805;SDS011;2929;50.810;8.342;2024-01-30T05:34:04;34.23;;;14.43;;
5805;SDS011;2929;50.810;8.342;2024-01-30T05:36:31;33.30;;;12.87;;
5805;SDS011;2929;50.810;8.342;2024-01-30T05:38:58;56.83;;;15.63;;
5805;SDS011;2929;50.810;8.342;2024-01-30T05:41:25;63.10;;;14.73;;
5805;SDS011;2929;50.810;8.342;2024-01-30T05:43:52;42.50;;;14.60;;
5805;SDS011;2929;50.810;8.342;2024-01-30T05:46:19;58.33;;;14.07;;
5805;SDS011;2929;50.810;8.342;2024-01-30T05:48:48;71.50;;;14.43;;
5805;SDS011;2929;50.810;8.342;2024-01-30T05:51:15;55.80;;;16.77;;
5805;SDS011;2929;50.810;8.342;2024-01-30T05:53:41;56.70;;;16.93;;
5805;SDS011;2929;50.810;8.342;2024-01-30T05:56:08;48.80;;;16.63;;
5805;SDS011;2929;50.810;8.342;2024-01-30T05:58:35;39.00;;;15.07;;
5805;SDS011;2929;50.810;8.342;2024-01-30T06:01:03;80.03;;;16.33;;
5805;SDS011;2929;50.810;8.342;2024-01-30T06:03:33;89.00;;;16.90;;
5805;SDS011;2929;50.810;8.342;2024-01-30T06:06:02;59.87;;;16.63;;
5805;SDS011;2929;50.810;8.342;2024-01-30T06:08:29;61.80;;;16.00;;
5805;SDS011;2929;50.810;8.342;2024-01-30T06:10:56;66.87;;;17.60;;
5805;SDS011;2929;50.810;8.342;2024-01-30T06:13:23;77.80;;;16.50;;
5805;SDS011;2929;50.810;8.342;2024-01-30T06:15:50;92.43;;;18.83;;
5805;SDS011;2929;50.810;8.342;2024-01-30T06:18:17;61.10;;;17.63;;
5805;SDS011;2929;50.810;8.342;2024-01-30T06:20:44;88.30;;;17.70;;
5805;SDS011;2929;50.810;8.342;2024-01-30T06:23:12;146.53;;;22.00;;
5805;SDS011;2929;50.810;8.342;2024-01-30T06:25:40;48.30;;;17.60;;
5805;SDS011;2929;50.810;8.342;2024-01-30T06:28:07;50.63;;;18.93;;
5805;SDS011;2929;50.810;8.342;2024-01-30T06:30:34;92.53;;;18.37;;
5805;SDS011;2929;50.810;8.342;2024-01-30T06:33:01;91.03;;;18.93;;
5805;SDS011;2929;50.810;8.342;2024-01-30T06:35:27;107.27;;;18.20;;
5805;SDS011;2929;50.810;8.342;2024-01-30T06:37:55;102.63;;;21.23;;
5805;SDS011;2929;50.810;8.342;2024-01-30T06:40:23;100.50;;;21.07;;
5805;SDS011;2929;50.810;8.342;2024-01-30T06:42:50;66.73;;;21.30;;
5805;SDS011;2929;50.810;8.342;2024-01-30T06:45:17;74.40;;;20.77;;
5805;SDS011;2929;50.810;8.342;2024-01-30T06:47:44;75.47;;;21.80;;
5805;SDS011;2929;50.810;8.342;2024-01-30T06:50:11;66.50;;;19.90;;
5805;SDS011;2929;50.810;8.342;2024-01-30T06:52:38;63.90;;;25.40;;
5805;SDS011;2929;50.810;8.342;2024-01-30T06:55:05;52.20;;;18.93;;
5805;SDS011;2929;50.810;8.342;2024-01-30T06:57:34;60.43;;;15.57;;
5805;SDS011;2929;50.810;8.342;2024-01-30T07:00:01;42.50;;;15.57;;
5805;SDS011;2929;50.810;8.342;2024-01-30T07:02:28;69.37;;;19.93;;
5805;SDS011;2929;50.810;8.342;2024-01-30T07:04:55;60.13;;;16.90;;
5805;SDS011;2929;50.810;8.342;2024-01-30T07:07:21;46.87;;;16.83;;
5805;SDS011;2929;50.810;8.342;2024-01-30T07:09:48;43.07;;;14.53;;
5805;SDS011;2929;50.810;8.342;2024-01-30T07:12:23;64.83;;;14.73;;
5805;SDS011;2929;50.810;8.342;2024-01-30T07:14:52;34.07;;;12.97;;
5805;SDS011;2929;50.810;8.342;2024-01-30T07:17:21;30.87;;;13.80;;
5805;SDS011;2929;50.810;8.342;2024-01-30T07:19:48;36.43;;;13.10;;
5805;SDS011;2929;50.810;8.342;2024-01-30T07:22:15;36.43;;;15.57;;
5805;SDS011;2929;50.810;8.342;2024-01-30T07:24:42;39.77;;;14.40;;
5805;SDS011;2929;50.810;8.342;2024-01-30T07:27:13;45.70;;;16.47;;
5805;SDS011;2929;50.810;8.342;2024-01-30T07:29:42;43.87;;;15.00;;
5805;SDS011;2929;50.810;8.342;2024-01-30T07:32:11;46.23;;;17.13;;
5805;SDS011;2929;50.810;8.342;2024-01-30T07:34:38;41.53;;;14.57;;
5805;SDS011;2929;50.810;8.342;2024-01-30T07:37:05;51.50;;;14.93;;
5805;SDS011;2929;50.810;8.342;2024-01-30T07:39:33;56.53;;;15.23;;
5805;SDS011;2929;50.810;8.342;2024-01-30T07:42:01;41.97;;;16.17;;
5805;SDS011;2929;50.810;8.342;2024-01-30T07:44:28;47.03;;;16.10;;
5805;SDS011;2929;50.810;8.342;2024-01-30T07:46:55;36.47;;;14.80;;
5805;SDS011;2929;50.810;8.342;2024-01-30T07:49:24;56.30;;;16.83;;
5805;SDS011;2929;50.810;8.342;2024-01-30T07:51:51;38.07;;;16.20;;
5805;SDS011;2929;50.810;8.342;2024-01-30T07:54:17;53.27;;;17.23;;
5805;SDS011;2929;50.810;8.342;2024-01-30T07:56:44;55.23;;;16.63;;
5805;SDS011;2929;50.810;8.342;2024-01-30T07:59:11;52.33;;;17.83;;
5805;SDS011;2929;50.810;8.342;2024-01-30T08:01:38;48.77;;;18.97;;
5805;SDS011;2929;50.810;8.342;2024-01-30T08:04:05;39.13;;;16.63;;
5805;SDS011;2929;50.810;8.342;2024-01-30T08:06:34;56.37;;;18.27;;
5805;SDS011;2929;50.810;8.342;2024-01-30T08:09:00;94.63;;;19.77;;
5805;SDS011;2929;50.810;8.342;2024-01-30T08:11:27;47.40;;;18.37;;
5805;SDS011;2929;50.810;8.342;2024-01-30T08:13:55;57.57;;;16.90;;
5805;SDS011;2929;50.810;8.342;2024-01-30T08:16:22;55.53;;;16.90;;
5805;SDS011;2929;50.810;8.342;2024-01-30T08:18:49;45.93;;;17.07;;
5805;SDS011;2929;50.810;8.342;2024-01-30T08:21:18;69.43;;;15.80;;
5805;SDS011;2929;50.810;8.342;2024-01-30T08:23:46;86.60;;;19.27;;
5805;SDS011;2929;50.810;8.342;2024-01-30T08:26:13;69.57;;;20.60;;
5805;SDS011;2929;50.810;8.342;2024-01-30T08:28:40;91.43;;;19.77;;
5805;SDS011;2929;50.810;8.342;2024-01-30T08:31:07;90.27;;;19.47;;
5805;SDS011;2929;50.810;8.342;2024-01-30T08:33:36;83.93;;;18.07;;
5805;SDS011;2929;50.810;8.342;2024-01-30T08:36:03;67.13;;;16.73;;
5805;SDS011;2929;50.810;8.342;2024-01-30T08:38:30;57.03;;;18.17;;
5805;SDS011;2929;50.810;8.342;2024-01-30T08:40:58;74.80;;;18.70;;
5805;SDS011;2929;50.810;8.342;2024-01-30T08:43:25;101.50;;;19.13;;
5805;SDS011;2929;50.810;8.342;2024-01-30T08:45:52;59.93;;;19.77;;
5805;SDS011;2929;50.810;8.342;2024-01-30T08:48:19;82.07;;;19.13;;
5805;SDS011;2929;50.810;8.342;2024-01-30T08:50:47;52.47;;;19.00;;
5805;SDS011;2929;50.810;8.342;2024-01-30T08:53:14;73.57;;;18.57;;
5805;SDS011;2929;50.810;8.342;2024-01-30T08:55:41;43.40;;;18.10;;
5805;SDS011;2929;50.810;8.342;2024-01-30T08:58:10;49.20;;;17.93;;
5805;SDS011;2929;50.810;8.342;2024-01-30T09:00:36;53.53;;;19.10;;
5805;SDS011;2929;50.810;8.342;2024-01-30T09:03:03;41.17;;;19.27;;
5805;SDS011;2929;50.810;8.342;2024-01-30T09:05:30;40.80;;;16.93;;
5805;SDS011;2929;50.810;8.342;2024-01-30T09:07:57;42.50;;;17.70;;
5805;SDS011;2929;50.810;8.342;2024-01-30T09:10:24;38.83;;;18.07;;
5805;SDS011;2929;50.810;8.342;2024-01-30T09:12:51;39.10;;;18.37;;
5805;SDS011;2929;50.810;8.342;2024-01-30T09:15:20;49.57;;;20.10;;
5805;SDS011;2929;50.810;8.342;2024-01-30T09:17:47;41.87;;;19.13;;
5805;SDS011;2929;50.810;8.342;2024-01-30T09:20:13;38.03;;;16.43;;
5805;SDS011;2929;50.810;8.342;2024-01-30T09:22:40;36.43;;;17.30;;
5805;SDS011;2929;50.810;8.342;2024-01-30T09:25:07;38.23;;;18.13;;
5805;SDS011;2929;50.810;8.342;2024-01-30T09:27:35;43.47;;;19.50;;
5805;SDS011;2929;50.810;8.342;2024-01-30T09:30:01;39.10;;;15.77;;
5805;SDS011;2929;50.810;8.342;2024-01-30T09:32:30;40.00;;;18.80;;
5805;SDS011;2929;50.810;8.342;2024-01-30T09:34:57;37.57;;;20.10;;
5805;SDS011;2929;50.810;8.342;2024-01-30T09:37:24;36.43;;;17.93;;
5805;SDS011;2929;50.810;8.342;2024-01-30T09:39:51;38.53;;;19.23;;
5805;SDS011;2929;50.810;8.342;2024-01-30T09:42:20;35.80;;;17.60;;
5805;SDS011;2929;50.810;8.342;2024-01-30T09:44:54;39.73;;;19.03;;
5805;SDS011;2929;50.810;8.342;2024-01-30T09:47:21;40.77;;;20.20;;
5805;SDS011;2929;50.810;8.342;2024-01-30T09:49:49;38.10;;;19.33;;
5805;SDS011;2929;50.810;8.342;2024-01-30T09:52:17;46.50;;;21.10;;
5805;SDS011;2929;50.810;8.342;2024-01-30T09:54:45;41.53;;;21.50;;
5805;SDS011;2929;50.810;8.342;2024-01-30T09:57:13;40.30;;;18.87;;
5805;SDS011;2929;50.810;8.342;2024-01-30T09:59:41;36.03;;;17.47;;
5805;SDS011;2929;50.810;8.342;2024-01-30T10:02:09;29.63;;;15.90;;
5805;SDS011;2929;50.810;8.342;2024-01-30T10:04:36;31.83;;;16.37;;
5805;SDS011;2929;50.810;8.342;2024-01-30T10:07:05;30.70;;;16.10;;
5805;SDS011;2929;50.810;8.342;2024-01-30T10:09:33;34.37;;;17.77;;
5805;SDS011;2929;50.810;8.342;2024-01-30T10:12:01;41.13;;;17.70;;
5805;SDS011;2929;50.810;8.342;2024-01-30T10:14:29;28.40;;;14.63;;
5805;SDS011;2929;50.810;8.342;2024-01-30T10:16:57;30.27;;;16.60;;
5805;SDS011;2929;50.810;8.342;2024-01-30T10:19:24;36.33;;;18.07;;
5805;SDS011;2929;50.810;8.342;2024-01-30T10:21:51;32.50;;;17.13;;
5805;SDS011;2929;50.810;8.342;2024-01-30T10:24:23;35.00;;;18.50;;
5805;SDS011;2929;50.810;8.342;2024-01-30T10:26:50;36.40;;;18.43;;
5805;SDS011;2929;50.810;8.342;2024-01-30T10:29:18;38.00;;;20.30;;
5805;SDS011;2929;50.810;8.342;2024-01-30T10:31:44;42.77;;;20.17;;
5805;SDS011;2929;50.810;8.342;2024-01-30T10:34:12;49.50;;;20.23;;
5805;SDS011;2929;50.810;8.342;2024-01-30T10:36:40;40.60;;;19.47;;
5805;SDS011;2929;50.810;8.342;2024-01-30T10:39:08;35.40;;;17.93;;
5805;SDS011;2929;50.810;8.342;2024-01-30T10:41:38;32.57;;;17.50;;
5805;SDS011;2929;50.810;8.342;2024-01-30T10:44:10;30.57;;;16.50;;
5805;SDS011;2929;50.810;8.342;2024-01-30T10:46:38;30.73;;;15.80;;
5805;SDS011;2929;50.810;8.342;2024-01-30T10:49:05;28.90;;;16.73;;
5805;SDS011;2929;50.810;8.342;2024-01-30T10:51:32;32.47;;;16.93;;
5805;SDS011;2929;50.810;8.342;2024-01-30T10:54:00;32.47;;;16.97;;
5805;SDS011;2929;50.810;8.342;2024-01-30T10:56:29;32.60;;;17.37;;
5805;SDS011;2929;50.810;8.342;2024-01-30T10:58:58;28.20;;;16.20;;
5805;SDS011;2929;50.810;8.342;2024-01-30T11:01:25;30.97;;;16.40;;
5805;SDS011;2929;50.810;8.342;2024-01-30T11:03:54;24.93;;;13.97;;
5805;SDS011;2929;50.810;8.342;2024-01-30T11:06:22;36.30;;;16.40;;
5805;SDS011;2929;50.810;8.342;2024-01-30T11:08:59;30.10;;;16.60;;
5805;SDS011;2929;50.810;8.342;2024-01-30T11:11:29;35.37;;;19.17;;
5805;SDS011;2929;50.810;8.342;2024-01-30T11:14:00;32.13;;;19.00;;
5805;SDS011;2929;50.810;8.342;2024-01-30T11:16:30;30.53;;;16.87;;
5805;SDS011;2929;50.810;8.342;2024-01-30T11:19:00;32.93;;;18.33;;
5805;SDS011;2929;50.810;8.342;2024-01-30T11:21:28;32.80;;;17.37;;
5805;SDS011;2929;50.810;8.342;2024-01-30T11:23:55;36.40;;;19.33;;
5805;SDS011;2929;50.810;8.342;2024-01-30T11:26:24;29.90;;;17.97;;
5805;SDS011;2929;50.810;8.342;2024-01-30T11:28:57;34.70;;;19.23;;
5805;SDS011;2929;50.810;8.342;2024-01-30T11:31:24;28.60;;;16.27;;
5805;SDS011;2929;50.810;8.342;2024-01-30T11:33:52;34.30;;;18.53;;
5805;SDS011;2929;50.810;8.342;2024-01-30T11:36:20;28.27;;;18.03;;
5805;SDS011;2929;50.810;8.342;2024-01-30T11:38:52;35.20;;;19.80;;
5805;SDS011;2929;50.810;8.342;2024-01-30T11:41:20;35.97;;;20.70;;
5805;SDS011;2929;50.810;8.342;2024-01-30T11:43:51;29.87;;;18.07;;
5805;SDS011;2929;50.810;8.342;2024-01-30T11:46:20;31.43;;;17.77;;
5805;SDS011;2929;50.810;8.342;2024-01-30T11:48:47;40.97;;;19.83;;
5805;SDS011;2929;50.810;8.342;2024-01-30T11:51:14;29.87;;;17.73;;
5805;SDS011;2929;50.810;8.342;2024-01-30T11:53:43;36.90;;;17.80;;
5805;SDS011;2929;50.810;8.342;2024-01-30T11:56:12;39.50;;;18.30;;
5805;SDS011;2929;50.810;8.342;2024-01-30T11:58:42;30.83;;;17.70;;
5805;SDS011;2929;50.810;8.342;2024-01-30T12:01:09;31.13;;;18.00;;
5805;SDS011;2929;50.810;8.342;2024-01-30T12:03:38;30.13;;;18.00;;
5805;SDS011;2929;50.810;8.342;2024-01-30T12:06:05;34.20;;;17.67;;
5805;SDS011;2929;50.810;8.342;2024-01-30T12:08:32;33.43;;;17.37;;
5805;SDS011;2929;50.810;8.342;2024-01-30T12:10:59;35.10;;;18.07;;
5805;SDS011;2929;50.810;8.342;2024-01-30T12:13:30;28.07;;;17.70;;
5805;SDS011;2929;50.810;8.342;2024-01-30T12:15:57;29.30;;;18.00;;
5805;SDS011;2929;50.810;8.342;2024-01-30T12:18:24;30.70;;;16.93;;
5805;SDS011;2929;50.810;8.342;2024-01-30T12:21:02;40.47;;;19.13;;
5805;SDS011;2929;50.810;8.342;2024-01-30T12:23:29;32.50;;;18.93;;
5805;SDS011;2929;50.810;8.342;2024-01-30T12:25:57;34.13;;;18.70;;
5805;SDS011;2929;50.810;8.342;2024-01-30T12:28:24;36.27;;;17.40;;
5805;SDS011;2929;50.810;8.342;2024-01-30T12:30:54;32.43;;;18.40;;
5805;SDS011;2929;50.810;8.342;2024-01-30T12:33:22;30.33;;;17.73;;
5805;SDS011;2929;50.810;8.342;2024-01-30T12:35:52;32.03;;;18.90;;
5805;SDS011;2929;50.810;8.342;2024-01-30T12:38:21;33.63;;;16.13;;
5805;SDS011;2929;50.810;8.342;2024-01-30T12:40:48;29.77;;;15.70;;
5805;SDS011;2929;50.810;8.342;2024-01-30T12:43:15;34.50;;;17.30;;
5805;SDS011;2929;50.810;8.342;2024-01-30T12:45:43;38.43;;;17.80;;
5805;SDS011;2929;50.810;8.342;2024-01-30T12:48:11;32.33;;;17.03;;
5805;SDS011;2929;50.810;8.342;2024-01-30T12:50:37;30.10;;;16.43;;
5805;SDS011;2929;50.810;8.342;2024-01-30T12:53:04;41.93;;;18.77;;
5805;SDS011;2929;50.810;8.342;2024-01-30T12:55:33;34.03;;;17.67;;
5805;SDS011;2929;50.810;8.342;2024-01-30T12:58:00;35.50;;;16.83;;
5805;SDS011;2929;50.810;8.342;2024-01-30T13:00:27;32.77;;;17.40;;
5805;SDS011;2929;50.810;8.342;2024-01-30T13:02:55;33.00;;;17.03;;
5805;SDS011;2929;50.810;8.342;2024-01-30T13:05:22;28.70;;;15.77;;
5805;SDS011;2929;50.810;8.342;2024-01-30T13:07:49;27.47;;;16.23;;
5805;SDS011;2929;50.810;8.342;2024-01-30T13:10:16;37.20;;;19.70;;
5805;SDS011;2929;50.810;8.342;2024-01-30T13:12:46;32.97;;;16.33;;
5805;SDS011;2929;50.810;8.342;2024-01-30T13:15:13;70.57;;;28.30;;
5805;SDS011;2929;50.810;8.342;2024-01-30T13:17:40;36.10;;;18.70;;
5805;SDS011;2929;50.810;8.342;2024-01-30T13:20:08;60.73;;;24.63;;
5805;SDS011;2929;50.810;8.342;2024-01-30T13:22:35;73.47;;;28.60;;
5805;SDS011;2929;50.810;8.342;2024-01-30T13:25:04;41.17;;;18.30;;
5805;SDS011;2929;50.810;8.342;2024-01-30T13:27:32;39.10;;;18.70;;
5805;SDS011;2929;50.810;8.342;2024-01-30T13:30:00;46.57;;;20.60;;
5805;SDS011;2929;50.810;8.342;2024-01-30T13:32:27;62.17;;;25.67;;
5805;SDS011;2929;50.810;8.342;2024-01-30T13:34:54;25.57;;;14.97;;
5805;SDS011;2929;50.810;8.342;2024-01-30T13:37:21;28.30;;;15.03;;
5805;SDS011;2929;50.810;8.342;2024-01-30T13:39:48;29.50;;;13.00;;
5805;SDS011;2929;50.810;8.342;2024-01-30T13:42:15;23.20;;;13.23;;
5805;SDS011;2929;50.810;8.342;2024-01-30T13:44:42;25.40;;;14.70;;
5805;SDS011;2929;50.810;8.342;2024-01-30T13:47:11;24.33;;;12.57;;
5805;SDS011;2929;50.810;8.342;2024-01-30T13:49:38;30.53;;;14.53;;
5805;SDS011;2929;50.810;8.342;2024-01-30T13:52:05;26.23;;;14.13;;
5805;SDS011;2929;50.810;8.342;2024-01-30T13:54:33;25.03;;;15.87;;
5805;SDS011;2929;50.810;8.342;2024-01-30T13:57:01;26.53;;;15.40;;
5805;SDS011;2929;50.810;8.342;2024-01-30T13:59:28;25.40;;;15.40;;
5805;SDS011;2929;50.810;8.342;2024-01-30T14:01:55;23.00;;;13.80;;
5805;SDS011;2929;50.810;8.342;2024-01-30T14:04:23;35.83;;;19.57;;
5805;SDS011;2929;50.810;8.342;2024-01-30T14:06:50;28.77;;;15.27;;
5805;SDS011;2929;50.810;8.342;2024-01-30T14:09:17;25.07;;;14.27;;
5805;SDS011;2929;50.810;8.342;2024-01-30T14:11:46;22.23;;;12.67;;
5805;SDS011;2929;50.810;8.342;2024-01-30T14:14:13;25.70;;;15.43;;
5805;SDS011;2929;50.810;8.342;2024-01-30T14:16:40;25.87;;;14.90;;
5805;SDS011;2929;50.810;8.342;2024-01-30T14:19:07;32.43;;;15.33;;
5805;SDS011;2929;50.810;8.342;2024-01-30T14:21:35;19.67;;;12.70;;
5805;SDS011;2929;50.810;8.342;2024-01-30T14:24:03;20.50;;;11.70;;
5805;SDS011;2929;50.810;8.342;2024-01-30T14:26:30;19.73;;;12.20;;
5805;SDS011;2929;50.810;8.342;2024-01-30T14:28:57;18.97;;;12.77;;
5805;SDS011;2929;50.810;8.342;2024-01-30T14:31:24;26.80;;;12.70;;
5805;SDS011;2929;50.810;8.342;2024-01-30T14:33:51;19.33;;;12.80;;
5805;SDS011;2929;50.810;8.342;2024-01-30T14:36:18;22.00;;;12.87;;
5805;SDS011;2929;50.810;8.342;2024-01-30T14:38:47;20.63;;;12.30;;
5805;SDS011;2929;50.810;8.342;2024-01-30T14:41:14;20.10;;;12.07;;
5805;SDS011;2929;50.810;8.342;2024-01-30T14:43:40;20.37;;;13.13;;
5805;SDS011;2929;50.810;8.342;2024-01-30T14:46:07;19.67;;;12.27;;
5805;SDS011;2929;50.810;8.342;2024-01-30T14:48:34;22.43;;;13.50;;
5805;SDS011;2929;50.810;8.342;2024-01-30T14:51:02;21.67;;;12.80;;
5805;SDS011;2929;50.810;8.342;2024-01-30T14:53:29;35.30;;;13.87;;